Danvers, Illinois
Current Conditions -  °F | °C
As of 1:56 AM on Saturday 29 Nov 2014 (Local Time) from KBMI Reporting Station
Clear Clear  
Wind Chill: 25°   Ceiling: Unl
Heat Index: 34°   Visibility: 10mi
Dew Point: 31°   Wind: 14mph
Humidity: 89%   Direction: 180°S
Pressure: 29.84"   Gusts: NA
Location:  40.53°N, 89.18°W
Report Text: KBMI 290756Z AUTO 18012KT 10SM CLR 01/M01 A2984 RMK AO2 T00111005 SLP116
Loading
Personal Weather Stations






























Interactive Weather Map New forecast layout! Learn more

10-Day Weather Forecast

Advertisements
Track Severe Weather on mobile